Time;durP1;ratioP1;P1;durP2;ratioP2;P2;SDS_P1;SDS_P2;PMS_P1;PMS_P2;Temp;Humidity;BMP_temperature;BMP_pressure;BME280_temperature;BME280_humidity;BME280_pressure;Samples;Min_cycle;Max_cycle;Signal;HPM_P1;HPM_P2
2022/07/29 00:01:23;;;;;;;1.20;0.70;;;14.50;99.90;;;;;;4966486;28;20505;-86
2022/07/29 00:03:49;;;;;;;2.03;0.60;;;14.50;99.90;;;;;;4949833;28;20125;-86
2022/07/29 00:06:15;;;;;;;3.08;0.88;;;14.50;99.90;;;;;;4967128;28;20467;-86
2022/07/29 00:08:41;;;;;;;4.43;0.80;;;14.50;99.90;;;;;;4935576;28;20065;-86
2022/07/29 00:11:07;;;;;;;2.25;0.80;;;14.50;99.90;;;;;;4938656;28;20172;-86
2022/07/29 00:13:33;;;;;;;2.25;0.57;;;14.50;99.90;;;;;;4937226;28;20050;-87
2022/07/29 00:15:59;;;;;;;3.55;0.45;;;14.50;99.90;;;;;;4938549;28;20058;-86
2022/07/29 00:18:28;;;;;;;4.53;0.70;;;14.60;99.90;;;;;;4970166;28;20057;-87
2022/07/29 00:20:54;;;;;;;1.80;0.60;;;14.60;99.90;;;;;;4953118;28;20047;-87
2022/07/29 00:23:20;;;;;;;6.03;0.75;;;14.60;99.90;;;;;;4957261;28;20054;-87
2022/07/29 00:25:45;;;;;;;2.40;0.68;;;14.10;99.90;;;;;;4937289;28;20047;-86
2022/07/29 00:28:11;;;;;;;1.45;0.80;;;14.60;99.90;;;;;;4970949;28;20084;-87
2022/07/29 00:30:37;;;;;;;4.55;1.20;;;14.60;99.90;;;;;;4952832;28;20093;-86
2022/07/29 00:33:03;;;;;;;3.55;0.70;;;14.60;99.90;;;;;;4969900;28;20050;-86
2022/07/29 00:35:43;;;;;;;2.20;0.50;;;14.90;99.90;;;;;;4970563;28;20058;-86
2022/07/29 00:38:14;;;;;;;1.52;1.00;;;14.70;99.90;;;;;;4968981;28;20031;-87
2022/07/29 00:40:40;;;;;;;2.25;0.80;;;14.70;99.90;;;;;;4953996;28;20078;-86
2022/07/29 00:43:06;;;;;;;1.85;0.88;;;14.70;99.90;;;;;;4968127;28;20606;-87
2022/07/29 00:45:32;;;;;;;2.95;0.70;;;15.40;99.90;;;;;;4937649;28;20039;-86
2022/07/29 00:47:58;;;;;;;1.73;0.70;;;14.80;99.90;;;;;;4952519;28;20050;-86
2022/07/29 00:50:24;;;;;;;3.83;0.80;;;14.80;99.90;;;;;;4953148;28;20039;-86
2022/07/29 00:52:53;;;;;;;2.17;0.88;;;14.80;99.90;;;;;;4952988;28;20047;-86
2022/07/29 00:55:19;;;;;;;2.00;1.23;;;14.80;99.90;;;;;;4952384;28;20050;-86
2022/07/29 00:57:46;;;;;;;2.28;0.95;;;14.80;99.90;;;;;;4953212;28;20047;-85
2022/07/29 01:00:22;;;;;;;2.67;0.95;;;14.80;99.90;;;;;;4952242;28;20120;-86
2022/07/29 01:02:48;;;;;;;2.33;0.82;;;14.90;99.90;;;;;;4969424;28;20042;-86
2022/07/29 01:05:19;;;;;;;1.65;0.85;;;14.90;99.90;;;;;;4952995;28;20051;-86
2022/07/29 01:07:47;;;;;;;3.38;0.95;;;14.90;99.90;;;;;;4937099;28;20093;-85
2022/07/29 01:10:15;;;;;;;2.70;0.93;;;14.90;99.90;;;;;;4953526;28;20050;-87
2022/07/29 01:12:44;;;;;;;3.10;0.57;;;14.90;99.90;;;;;;4951770;28;20084;-86
2022/07/29 01:15:11;;;;;;;5.30;0.60;;;14.90;99.90;;;;;;4953557;28;20058;-86
2022/07/29 01:17:48;;;;;;;3.53;0.75;;;14.90;99.90;;;;;;4968169;28;20133;-86
2022/07/29 01:20:39;;;;;;;4.45;0.80;;;14.90;99.90;;;;;;4968620;28;20061;-86
2022/07/29 01:23:39;;;;;;;1.50;0.40;;;15.00;99.90;;;;;;4952949;28;20051;-85
2022/07/29 01:26:26;;;;;;;2.03;0.65;;;15.00;99.90;;;;;;4967703;28;20094;-85
2022/07/29 01:29:07;;;;;;;5.47;1.00;;;15.00;99.90;;;;;;4971213;28;20110;-86
2022/07/29 01:31:40;;;;;;;3.33;0.77;;;14.90;99.90;;;;;;4952520;28;20054;-86
2022/07/29 01:34:20;;;;;;;5.97;0.80;;;15.00;99.90;;;;;;4967636;28;20050;-85
2022/07/29 01:37:00;;;;;;;1.50;0.82;;;15.00;99.90;;;;;;4953676;28;20393;-85
2022/07/29 01:39:36;;;;;;;4.40;0.95;;;15.00;99.90;;;;;;4951530;28;20549;-85
2022/07/29 01:42:12;;;;;;;3.78;0.90;;;15.00;99.90;;;;;;4952052;28;20047;-85
2022/07/29 01:44:57;;;;;;;2.33;0.60;;;14.90;99.90;;;;;;5000324;28;20043;-86
2022/07/29 01:47:31;;;;;;;2.15;0.98;;;15.00;99.90;;;;;;4951291;28;20054;-86
2022/07/29 01:49:59;;;;;;;2.50;0.93;;;15.00;99.90;;;;;;4953283;28;20051;-85
2022/07/29 01:53:05;;;;;;;6.13;0.90;;;15.90;99.90;;;;;;4967998;28;20489;-86
2022/07/29 01:55:42;;;;;;;3.13;1.00;;;15.00;99.90;;;;;;4964942;28;20055;-86
2022/07/29 01:58:10;;;;;;;1.52;0.60;;;15.00;99.90;;;;;;4968814;28;20042;-86
2022/07/29 02:00:37;;;;;;;2.72;0.88;;;15.00;99.90;;;;;;4967161;28;20486;-86
2022/07/29 02:03:09;;;;;;;4.40;1.02;;;14.90;99.90;;;;;;4936920;28;20440;-86
2022/07/29 02:05:39;;;;;;;2.67;0.80;;;14.90;99.90;;;;;;4967480;28;20050;-86
2022/07/29 02:08:06;;;;;;;1.80;0.70;;;14.30;99.90;;;;;;4951053;28;20043;-86
2022/07/29 02:10:34;;;;;;;3.25;0.73;;;14.80;99.90;;;;;;4968499;28;20090;-86
2022/07/29 02:13:02;;;;;;;3.90;0.82;;;14.90;99.90;;;;;;4951368;28;20047;-86
2022/07/29 02:15:32;;;;;;;2.60;1.02;;;15.00;99.90;;;;;;4968665;28;20108;-86
2022/07/29 02:18:09;;;;;;;3.03;0.85;;;14.90;99.90;;;;;;4950669;28;20544;-86
2022/07/29 02:20:37;;;;;;;2.15;0.93;;;14.90;99.90;;;;;;4953362;28;20065;-86
2022/07/29 02:23:04;;;;;;;1.73;0.82;;;14.90;99.90;;;;;;4969451;28;20047;-86
2022/07/29 02:25:31;;;;;;;3.67;0.80;;;14.90;99.90;;;;;;4984061;28;20124;-86
2022/07/29 02:28:00;;;;;;;1.35;0.63;;;15.00;99.90;;;;;;4952474;28;20082;-87
2022/07/29 02:30:28;;;;;;;8.02;0.82;;;14.90;99.90;;;;;;4982617;28;20133;-86
2022/07/29 02:32:55;;;;;;;2.17;0.88;;;15.00;99.90;;;;;;4936976;28;20465;-86
2022/07/29 02:35:24;;;;;;;2.78;0.82;;;15.00;99.90;;;;;;4967858;28;20057;-86
2022/07/29 02:40:39;;;;;;;4.55;1.00;;;15.00;99.90;;;;;;5027249;28;20055;-87
2022/07/29 02:43:06;;;;;;;2.08;0.77;;;15.00;99.90;;;;;;4952669;28;20074;-87
2022/07/29 02:45:34;;;;;;;6.10;1.00;;;15.00;99.90;;;;;;4971358;28;20053;-86
2022/07/29 02:48:09;;;;;;;1.38;0.60;;;15.00;99.90;;;;;;4938255;28;20086;-86
2022/07/29 02:50:44;;;;;;;4.93;0.90;;;15.00;99.90;;;;;;5017394;28;20054;-86
2022/07/29 02:53:16;;;;;;;5.43;0.77;;;15.00;99.90;;;;;;4969920;28;20043;-86
2022/07/29 02:56:03;;;;;;;1.98;0.65;;;15.40;99.90;;;;;;4969962;28;20129;-86
2022/07/29 02:58:32;;;;;;;3.33;0.90;;;15.00;99.90;;;;;;4970556;28;20054;-86
2022/07/29 03:01:02;;;;;;;3.40;0.98;;;14.90;99.90;;;;;;4952453;28;20043;-86
2022/07/29 03:03:32;;;;;;;2.78;0.73;;;14.90;99.90;;;;;;4953709;28;20129;-86
2022/07/29 03:06:00;;;;;;;4.55;1.40;;;14.90;99.90;;;;;;4952765;28;20053;-87
2022/07/29 03:08:27;;;;;;;1.90;0.80;;;14.90;99.90;;;;;;4953383;28;20129;-86
2022/07/29 03:10:53;;;;;;;5.18;0.90;;;14.90;99.90;;;;;;4938153;28;20451;-87
2022/07/29 03:13:20;;;;;;;4.85;1.08;;;14.90;99.90;;;;;;4952263;28;20125;-86
2022/07/29 03:15:46;;;;;;;3.25;0.90;;;14.80;99.90;;;;;;4969822;28;20050;-86
2022/07/29 03:18:13;;;;;;;3.22;1.08;;;14.80;99.90;;;;;;4951888;28;20157;-86
2022/07/29 03:20:40;;;;;;;1.63;1.02;;;14.80;99.90;;;;;;4969946;28;20035;-87
2022/07/29 03:23:08;;;;;;;3.15;0.77;;;14.80;99.90;;;;;;4969337;28;20055;-86
2022/07/29 03:25:34;;;;;;;4.53;0.85;;;14.80;99.90;;;;;;4952615;28;20533;-88
2022/07/29 03:28:00;;;;;;;2.67;0.70;;;14.80;99.90;;;;;;4936851;28;20092;-86
2022/07/29 03:30:26;;;;;;;4.35;1.00;;;14.80;99.90;;;;;;4967291;28;20047;-86
2022/07/29 03:32:55;;;;;;;3.22;0.80;;;14.70;99.90;;;;;;4936578;28;20096;-87
2022/07/29 03:35:22;;;;;;;4.25;0.90;;;14.70;99.90;;;;;;4966487;28;20050;-86
2022/07/29 03:37:48;;;;;;;2.83;0.95;;;15.20;99.90;;;;;;4950814;28;20038;-87
2022/07/29 03:40:19;;;;;;;6.68;0.85;;;14.70;99.90;;;;;;4950165;28;20138;-86
2022/07/29 03:42:46;;;;;;;3.90;1.17;;;14.70;99.90;;;;;;4950503;28;20636;-86
2022/07/29 03:45:17;;;;;;;3.58;1.02;;;14.80;99.90;;;;;;4950205;28;20061;-86
2022/07/29 03:47:48;;;;;;;4.65;1.05;;;14.80;99.90;;;;;;4949662;28;20062;-86
2022/07/29 03:50:15;;;;;;;4.03;1.00;;;14.80;99.90;;;;;;4950825;28;20039;-86
2022/07/29 03:52:41;;;;;;;4.47;1.10;;;15.60;99.90;;;;;;4949514;28;20047;-86
2022/07/29 03:55:08;;;;;;;3.67;1.15;;;14.80;99.90;;;;;;4950442;28;20047;-86
2022/07/29 03:57:35;;;;;;;1.55;0.63;;;14.80;99.90;;;;;;4950085;28;20048;-86
2022/07/29 04:00:04;;;;;;;7.38;0.98;;;14.80;99.90;;;;;;4950054;28;20126;-86
2022/07/29 04:02:31;;;;;;;2.78;1.00;;;14.80;99.90;;;;;;4935027;28;20402;-86
2022/07/29 04:04:57;;;;;;;5.80;1.15;;;15.90;99.90;;;;;;4933742;28;20506;-86
2022/07/29 04:07:23;;;;;;;3.88;1.00;;;14.80;99.90;;;;;;4950610;28;20050;-87
2022/07/29 04:09:49;;;;;;;2.88;1.23;;;14.80;99.90;;;;;;4933434;28;20049;-87
2022/07/29 04:12:15;;;;;;;2.13;0.75;;;14.80;99.90;;;;;;4950697;28;20219;-87
2022/07/29 04:14:40;;;;;;;3.10;1.25;;;15.00;99.90;;;;;;4933982;28;20520;-87
2022/07/29 04:17:06;;;;;;;4.10;0.90;;;14.80;99.90;;;;;;4950051;28;20038;-87
2022/07/29 04:19:32;;;;;;;4.25;1.15;;;14.80;99.90;;;;;;4950395;28;20053;-87
2022/07/29 04:21:59;;;;;;;5.70;0.93;;;14.80;99.90;;;;;;4933789;28;20043;-86
2022/07/29 04:24:25;;;;;;;9.35;1.40;;;14.80;99.90;;;;;;4966980;28;20046;-86
2022/07/29 04:26:51;;;;;;;7.85;1.10;;;14.80;99.90;;;;;;4965303;28;20047;-86
2022/07/29 04:29:17;;;;;;;5.30;1.27;;;15.90;99.90;;;;;;4934482;28;20095;-86
2022/07/29 04:31:43;;;;;;;5.75;0.93;;;14.80;99.90;;;;;;4949111;28;20082;-85
2022/07/29 04:34:10;;;;;;;8.90;1.27;;;14.90;99.90;;;;;;4935837;28;20061;-86
2022/07/29 04:36:36;;;;;;;2.80;0.98;;;14.90;99.90;;;;;;4970090;28;20358;-87
2022/07/29 04:39:02;;;;;;;3.97;0.85;;;15.00;99.90;;;;;;4955400;28;20050;-86
2022/07/29 04:41:28;;;;;;;6.47;1.02;;;15.00;99.90;;;;;;4954346;28;20421;-87
2022/07/29 04:43:54;;;;;;;2.78;0.73;;;15.00;99.90;;;;;;4965925;28;20390;-86
2022/07/29 04:46:21;;;;;;;4.47;1.10;;;15.40;99.90;;;;;;4950712;28;20066;-84
2022/07/29 04:48:47;;;;;;;2.83;0.70;;;15.00;99.90;;;;;;4965225;28;20050;-85
2022/07/29 04:51:15;;;;;;;3.30;0.57;;;15.10;99.90;;;;;;4967683;28;20039;-89
2022/07/29 04:53:41;;;;;;;3.80;0.90;;;15.10;99.90;;;;;;4951288;28;20049;-85
2022/07/29 04:56:06;;;;;;;6.70;1.10;;;15.10;99.90;;;;;;4953529;28;20442;-85
2022/07/29 04:58:34;;;;;;;1.90;1.50;;;15.10;99.90;;;;;;4955143;28;20063;-89
2022/07/29 05:01:00;;;;;;;3.35;0.75;;;15.20;99.90;;;;;;4954983;28;20075;-91
2022/07/29 05:03:26;;;;;;;1.88;0.70;;;15.20;99.90;;;;;;4956459;28;20054;-89
2022/07/29 05:05:52;;;;;;;6.30;1.70;;;15.10;99.90;;;;;;4953448;28;20043;-88
2022/07/29 05:08:18;;;;;;;5.60;1.00;;;15.20;99.90;;;;;;4938849;28;20085;-88
2022/07/29 05:10:44;;;;;;;3.85;0.93;;;15.20;99.90;;;;;;4937906;28;20090;-88
2022/07/29 05:13:10;;;;;;;5.38;1.20;;;15.30;99.90;;;;;;4954615;28;20162;-85
2022/07/29 05:15:36;;;;;;;5.65;1.00;;;14.50;99.90;;;;;;4937456;28;20046;-86
2022/07/29 05:18:03;;;;;;;2.25;0.90;;;15.30;99.90;;;;;;4941780;28;20053;-91
2022/07/29 05:20:30;;;;;;;6.00;1.13;;;14.50;99.90;;;;;;4957981;28;20452;-90
2022/07/29 05:22:57;;;;;;;2.55;1.10;;;15.10;99.90;;;;;;4939717;28;20050;-88
2022/07/29 05:25:24;;;;;;;4.07;1.33;;;15.40;99.90;;;;;;4941318;28;20100;-89
2022/07/29 05:27:50;;;;;;;5.43;0.90;;;15.30;99.90;;;;;;4941130;28;20430;-91
2022/07/29 05:30:16;;;;;;;7.88;1.27;;;15.40;99.90;;;;;;4942711;28;20046;-89
2022/07/29 05:32:42;;;;;;;6.18;1.17;;;15.50;99.90;;;;;;4957903;28;20498;-90
2022/07/29 05:35:10;;;;;;;6.45;0.73;;;15.40;99.90;;;;;;4956717;28;20658;-91
2022/07/29 05:37:45;;;;;;;5.10;1.33;;;15.50;99.90;;;;;;4972809;28;20046;-89
2022/07/29 05:40:11;;;;;;;6.45;0.90;;;15.60;99.90;;;;;;4957340;28;20631;-90
2022/07/29 05:42:40;;;;;;;7.40;1.10;;;15.60;99.90;;;;;;4956108;28;20043;-89
2022/07/29 05:45:06;;;;;;;4.30;0.90;;;15.70;99.90;;;;;;4951460;28;20089;-92
2022/07/29 05:47:32;;;;;;;4.50;0.90;;;15.70;99.90;;;;;;4968024;28;20101;-91
2022/07/29 05:49:57;;;;;;;2.08;0.93;;;15.80;99.90;;;;;;4951551;28;20085;-90
2022/07/29 05:52:26;;;;;;;5.13;0.73;;;15.90;99.90;;;;;;4935973;28;20053;-89
2022/07/29 05:54:52;;;;;;;3.17;1.40;;;16.00;99.90;;;;;;4936168;28;20050;-88
2022/07/29 05:57:22;;;;;;;3.83;0.82;;;15.30;99.90;;;;;;4968799;28;20409;-87
2022/07/29 05:59:51;;;;;;;6.70;1.00;;;16.10;99.90;;;;;;4955408;28;20341;-87
2022/07/29 06:02:17;;;;;;;1.88;0.77;;;16.10;99.90;;;;;;4951963;28;20039;-88
2022/07/29 06:04:43;;;;;;;6.20;0.93;;;16.20;99.90;;;;;;4955440;28;20042;-88
2022/07/29 06:07:09;;;;;;;2.90;0.60;;;15.50;99.90;;;;;;4970129;28;20101;-88
2022/07/29 06:09:35;;;;;;;5.10;1.13;;;16.30;99.90;;;;;;4955148;28;20039;-87
2022/07/29 06:12:01;;;;;;;2.28;0.82;;;16.30;99.90;;;;;;4954557;28;20471;-87
2022/07/29 06:14:28;;;;;;;3.28;1.00;;;16.40;99.90;;;;;;4954610;28;20046;-87
2022/07/29 06:16:54;;;;;;;2.67;0.88;;;16.40;99.90;;;;;;4970771;28;20085;-87
2022/07/29 06:19:20;;;;;;;3.60;0.75;;;16.50;99.90;;;;;;4953175;28;20051;-86
2022/07/29 06:21:46;;;;;;;4.25;0.63;;;16.50;99.90;;;;;;4935609;28;20138;-86
2022/07/29 06:24:13;;;;;;;4.57;1.02;;;16.50;99.90;;;;;;4950874;28;20101;-87
2022/07/29 06:26:40;;;;;;;3.55;1.20;;;16.60;99.90;;;;;;4952595;28;20129;-88
2022/07/29 06:29:12;;;;;;;2.58;1.00;;;17.40;99.90;;;;;;4955125;28;20137;-88
2022/07/29 06:31:40;;;;;;;4.00;0.93;;;16.70;99.90;;;;;;4966665;28;20530;-88
2022/07/29 06:34:05;;;;;;;3.95;0.80;;;16.80;99.90;;;;;;4951641;28;20058;-88
2022/07/29 06:36:35;;;;;;;3.90;1.58;;;16.90;99.90;;;;;;4983465;28;20051;-87
2022/07/29 06:39:03;;;;;;;3.72;1.08;;;16.90;99.90;;;;;;4953181;28;20061;-88
2022/07/29 06:41:28;;;;;;;6.40;0.80;;;17.00;99.90;;;;;;4969139;28;20072;-87
2022/07/29 06:43:55;;;;;;;5.45;1.00;;;17.10;99.90;;;;;;4953042;28;20058;-87
2022/07/29 06:46:21;;;;;;;2.83;0.82;;;17.10;99.90;;;;;;4984604;28;20051;-89
2022/07/29 06:48:47;;;;;;;1.92;0.77;;;17.20;99.90;;;;;;4935386;28;20049;-88
2022/07/29 06:51:13;;;;;;;4.65;1.15;;;17.30;99.90;;;;;;4937369;28;20050;-87
2022/07/29 06:53:39;;;;;;;3.30;1.02;;;17.40;99.90;;;;;;4950217;28;20516;-89
2022/07/29 06:56:08;;;;;;;3.25;0.90;;;17.40;99.90;;;;;;4951630;28;20046;-90
2022/07/29 06:58:36;;;;;;;5.45;0.98;;;17.50;99.90;;;;;;4950528;28;20038;-90
2022/07/29 07:01:04;;;;;;;2.55;0.88;;;17.60;99.90;;;;;;4951139;28;20516;-91
2022/07/29 07:03:30;;;;;;;3.45;0.90;;;17.70;99.90;;;;;;4935365;28;20057;-88
2022/07/29 07:05:56;;;;;;;2.53;0.95;;;17.80;99.90;;;;;;4950693;28;20428;-87
2022/07/29 07:08:23;;;;;;;4.88;1.17;;;17.90;99.90;;;;;;4951578;28;20068;-90
2022/07/29 07:10:56;;;;;;;4.55;1.10;;;17.50;99.90;;;;;;4936805;28;20070;-93
2022/07/29 07:13:21;;;;;;;4.60;0.75;;;18.10;99.90;;;;;;4968414;28;20410;-90
2022/07/29 07:15:48;;;;;;;6.28;1.05;;;18.10;99.90;;;;;;4966370;28;20042;-90
2022/07/29 07:18:15;;;;;;;5.78;1.35;;;18.20;99.90;;;;;;4966539;28;20050;-90
2022/07/29 07:20:41;;;;;;;3.47;1.05;;;19.20;99.90;;;;;;4950875;28;20047;-90
2022/07/29 07:23:06;;;;;;;4.38;0.90;;;18.20;99.90;;;;;;4950129;28;20046;-88
2022/07/29 07:25:32;;;;;;;3.67;1.00;;;18.30;99.90;;;;;;4967441;28;20074;-91
2022/07/29 07:27:58;;;;;;;8.98;1.20;;;18.30;99.90;;;;;;4966577;28;20062;-93
2022/07/29 07:30:24;;;;;;;3.28;0.68;;;18.40;99.90;;;;;;4935755;28;20047;-93
2022/07/29 07:32:50;;;;;;;4.90;1.50;;;18.50;99.90;;;;;;4934659;28;20043;-90
2022/07/29 07:35:15;;;;;;;8.07;1.10;;;18.50;99.90;;;;;;4951518;28;20149;-90
2022/07/29 07:37:41;;;;;;;7.90;1.20;;;18.60;99.90;;;;;;4950819;28;20043;-90
2022/07/29 07:40:09;;;;;;;9.02;0.80;;;18.60;99.90;;;;;;4950419;28;20133;-88
2022/07/29 07:42:35;;;;;;;3.17;0.90;;;18.60;99.90;;;;;;4951131;28;20133;-89
2022/07/29 07:45:01;;;;;;;5.00;1.00;;;18.60;99.90;;;;;;4952438;28;20089;-92
2022/07/29 07:47:26;;;;;;;2.22;0.80;;;18.60;99.90;;;;;;4955270;28;20059;-88
2022/07/29 07:49:53;;;;;;;4.82;1.30;;;18.70;99.90;;;;;;4954148;28;20047;-90
2022/07/29 07:52:21;;;;;;;4.53;1.00;;;18.70;99.90;;;;;;4940083;28;20066;-92
2022/07/29 07:54:48;;;;;;;9.25;1.25;;;18.80;99.90;;;;;;4973590;28;20038;-89
2022/07/29 07:57:15;;;;;;;3.75;1.05;;;18.80;99.90;;;;;;4971387;28;20219;-89
2022/07/29 07:59:42;;;;;;;8.50;1.30;;;18.90;99.90;;;;;;5002904;28;20043;-87
2022/07/29 08:02:09;;;;;;;5.75;0.95;;;19.00;99.90;;;;;;4987397;28;20050;-90
2022/07/29 08:04:35;;;;;;;2.40;0.80;;;19.00;99.90;;;;;;4978172;28;20047;-86
2022/07/29 08:07:02;;;;;;;4.38;1.17;;;19.10;99.90;;;;;;4984632;28;20050;-86
2022/07/29 08:09:28;;;;;;;5.35;1.00;;;19.00;99.90;;;;;;4937377;28;20064;-86
2022/07/29 08:11:55;;;;;;;2.80;0.93;;;19.10;99.90;;;;;;4936743;28;20093;-85
2022/07/29 08:14:21;;;;;;;2.80;1.27;;;19.10;99.90;;;;;;4969097;28;20102;-85
2022/07/29 08:16:47;;;;;;;4.18;1.15;;;19.10;99.90;;;;;;4952832;28;20039;-86
2022/07/29 08:19:13;;;;;;;4.38;1.23;;;19.20;99.90;;;;;;4951146;28;20054;-86
2022/07/29 08:21:38;;;;;;;3.47;1.20;;;19.20;99.90;;;;;;4954047;28;20320;-90
2022/07/29 08:26:49;;;;;;;8.20;1.02;;;19.20;99.90;;;;;;5025944;28;20151;-86
2022/07/29 08:29:14;;;;;;;2.33;0.90;;;19.30;99.90;;;;;;4954038;28;20440;-86
2022/07/29 08:31:40;;;;;;;5.63;1.42;;;19.40;99.90;;;;;;4954068;28;20039;-86
2022/07/29 08:34:07;;;;;;;4.70;1.05;;;19.50;99.90;;;;;;4954574;28;20130;-87
2022/07/29 08:36:33;;;;;;;6.05;0.93;;;19.60;99.90;;;;;;4952533;28;20101;-86
2022/07/29 08:38:59;;;;;;;3.33;1.40;;;19.70;99.90;;;;;;4953513;28;20113;-87
2022/07/29 08:41:25;;;;;;;3.33;0.80;;;19.80;99.90;;;;;;4953362;28;20045;-86
2022/07/29 08:43:52;;;;;;;5.00;1.15;;;19.80;99.90;;;;;;4974316;28;20074;-86
2022/07/29 08:46:19;;;;;;;4.05;1.20;;;19.90;99.90;;;;;;4959600;28;20460;-86
2022/07/29 08:48:45;;;;;;;5.78;1.13;;;19.90;99.90;;;;;;4959054;28;20433;-87
2022/07/29 08:51:17;;;;;;;5.75;1.63;;;20.00;99.90;;;;;;4960512;28;20050;-87
2022/07/29 08:53:44;;;;;;;6.95;1.00;;;20.00;99.90;;;;;;4958781;28;20051;-86
2022/07/29 08:56:14;;;;;;;3.30;1.27;;;20.00;99.90;;;;;;4993486;28;20081;-90
2022/07/29 08:58:41;;;;;;;5.60;1.23;;;20.10;99.90;;;;;;4958383;28;20486;-89
2022/07/29 09:01:08;;;;;;;3.63;1.50;;;20.10;99.90;;;;;;4944134;28;20039;-87
2022/07/29 09:03:37;;;;;;;5.78;1.40;;;19.00;99.90;;;;;;4959740;28;20050;-85
2022/07/29 09:06:04;;;;;;;8.60;1.13;;;20.10;99.90;;;;;;4974880;28;20035;-87
2022/07/29 09:08:31;;;;;;;5.95;1.40;;;20.10;99.90;;;;;;4959407;28;20054;-90
2022/07/29 09:10:58;;;;;;;1.92;0.75;;;20.10;99.90;;;;;;4953425;28;20047;-88
2022/07/29 09:13:24;;;;;;;2.20;0.80;;;20.10;99.90;;;;;;4970628;28;20482;-89
2022/07/29 09:15:50;;;;;;;6.60;1.08;;;20.10;99.90;;;;;;4938509;28;20050;-88
2022/07/29 09:18:33;;;;;;;4.88;0.85;;;20.00;99.90;;;;;;4956803;28;20043;-89
2022/07/29 09:24:04;;;;;;;2.63;0.98;;;20.20;99.90;;;;;;4969451;28;20137;-91
2022/07/29 09:26:31;;;;;;;2.75;0.65;;;20.30;99.90;;;;;;4968482;28;20074;-91
2022/07/29 09:28:58;;;;;;;2.97;1.17;;;20.30;99.90;;;;;;4952762;28;20394;-90
2022/07/29 09:31:36;;;;;;;4.07;1.13;;;20.30;99.90;;;;;;4953554;28;20043;-88
2022/07/29 09:34:03;;;;;;;3.95;0.98;;;20.30;99.90;;;;;;4970047;28;20043;-92
2022/07/29 09:36:29;;;;;;;4.22;1.17;;;20.40;99.90;;;;;;4968652;28;20051;-94
2022/07/29 09:39:02;;;;;;;4.57;1.40;;;20.50;99.90;;;;;;4970564;28;20233;-92
2022/07/29 09:41:29;;;;;;;2.75;1.63;;;20.50;99.90;;;;;;4953346;28;20138;-92
2022/07/29 09:43:56;;;;;;;2.78;1.10;;;20.50;99.90;;;;;;4937350;28;20077;-91
2022/07/29 09:46:24;;;;;;;2.08;0.95;;;20.50;99.90;;;;;;4952284;28;20050;-92
2022/07/29 09:49:09;;;;;;;4.72;1.25;;;20.50;99.90;;;;;;4969611;28;20046;-91
2022/07/29 09:51:35;;;;;;;3.90;1.20;;;20.50;99.90;;;;;;4952765;28;20061;-89
2022/07/29 09:54:03;;;;;;;4.10;1.23;;;20.40;99.90;;;;;;4951528;28;20436;-89
2022/07/29 09:56:42;;;;;;;3.95;1.38;;;20.40;99.90;;;;;;4952047;28;20046;-90
2022/07/29 09:59:09;;;;;;;7.15;1.17;;;20.40;99.90;;;;;;4952922;28;20176;-89
2022/07/29 10:01:35;;;;;;;2.60;1.30;;;20.40;99.90;;;;;;4967903;28;20093;-89
2022/07/29 10:04:01;;;;;;;10.50;1.13;;;20.40;99.90;;;;;;4936345;28;20078;-87
2022/07/29 10:06:28;;;;;;;3.60;1.08;;;20.40;99.90;;;;;;4935996;28;20082;-88
2022/07/29 10:08:54;;;;;;;5.28;1.42;;;20.40;99.90;;;;;;4953797;28;20406;-89
2022/07/29 10:11:20;;;;;;;4.60;0.90;;;20.40;99.90;;;;;;4951569;28;20147;-92
2022/07/29 10:13:51;;;;;;;6.68;1.13;;;20.40;99.90;;;;;;4969463;28;20534;-86
2022/07/29 10:16:17;;;;;;;4.28;1.40;;;20.50;99.90;;;;;;4968241;28;20047;-90
2022/07/29 10:18:44;;;;;;;5.25;1.40;;;20.50;99.90;;;;;;4966847;28;20138;-86
2022/07/29 10:21:15;;;;;;;4.40;1.17;;;20.50;99.90;;;;;;4952829;28;20551;-87
2022/07/29 10:23:42;;;;;;;2.25;1.35;;;20.50;99.90;;;;;;4965582;28;20054;-86
2022/07/29 10:26:11;;;;;;;3.85;1.15;;;20.50;99.90;;;;;;4967812;28;20108;-89
2022/07/29 10:28:38;;;;;;;3.20;1.35;;;20.50;99.90;;;;;;4950934;28;20456;-87
2022/07/29 10:31:06;;;;;;;5.68;1.15;;;20.60;99.90;;;;;;4952557;28;20061;-91
2022/07/29 10:33:45;;;;;;;2.80;1.25;;;20.50;99.90;;;;;;4953945;28;20398;-91
2022/07/29 10:36:33;;;;;;;5.30;1.50;;;20.60;99.90;;;;;;4969386;28;20050;-90
2022/07/29 10:39:25;;;;;;;2.88;1.35;;;20.70;99.90;;;;;;4967896;28;20089;-90
2022/07/29 10:42:11;;;;;;;6.68;1.98;;;20.60;99.90;;;;;;4968852;28;20058;-90
2022/07/29 10:44:41;;;;;;;2.97;1.42;;;20.70;99.90;;;;;;4967781;28;20146;-87
2022/07/29 10:47:08;;;;;;;4.22;1.40;;;20.80;99.90;;;;;;4950607;28;20680;-88
2022/07/29 10:49:37;;;;;;;5.25;1.80;;;20.80;99.90;;;;;;4967375;28;20112;-90
2022/07/29 10:52:10;;;;;;;5.28;2.53;;;20.90;99.90;;;;;;4953190;28;20363;-89
2022/07/29 10:54:37;;;;;;;5.85;1.80;;;20.90;99.90;;;;;;4982900;28;20062;-89
2022/07/29 10:57:27;;;;;;;3.28;1.70;;;20.90;99.90;;;;;;4969209;28;20413;-90
2022/07/29 11:00:08;;;;;;;7.53;1.70;;;21.00;99.90;;;;;;4951932;28;20050;-91
2022/07/29 11:02:42;;;;;;;8.35;1.98;;;21.00;99.90;;;;;;4967893;28;20085;-90
2022/07/29 11:05:14;;;;;;;3.92;1.50;;;21.00;99.90;;;;;;4953331;28;20354;-90
2022/07/29 11:08:21;;;;;;;5.15;1.65;;;21.10;99.90;;;;;;4966047;28;20051;-89
2022/07/29 11:10:53;;;;;;;6.88;2.10;;;21.00;99.90;;;;;;4967317;28;20105;-89
2022/07/29 11:13:45;;;;;;;3.25;1.30;;;21.00;99.90;;;;;;4983310;28;20051;-89
2022/07/29 11:16:15;;;;;;;7.30;2.10;;;21.00;99.90;;;;;;4967102;28;20164;-88
2022/07/29 11:19:12;;;;;;;5.35;1.90;;;20.90;99.90;;;;;;4952701;28;20496;-88
2022/07/29 11:21:43;;;;;;;11.77;2.38;;;20.80;99.90;;;;;;4966799;28;20091;-89
2022/07/29 11:24:20;;;;;;;5.38;2.30;;;20.70;99.90;;;;;;4951371;28;20047;-87
2022/07/29 11:27:07;;;;;;;5.65;2.45;;;20.70;99.90;;;;;;4965487;28;20157;-86
2022/07/29 11:29:38;;;;;;;7.07;1.92;;;20.70;99.90;;;;;;4967320;28;20120;-93
2022/07/29 11:32:16;;;;;;;5.85;1.92;;;20.70;99.90;;;;;;4966011;28;20435;-90
2022/07/29 11:34:46;;;;;;;7.07;2.17;;;20.80;99.90;;;;;;4966996;28;20081;-83
2022/07/29 11:37:12;;;;;;;6.85;1.73;;;20.80;99.90;;;;;;4965349;28;20047;-83
2022/07/29 11:39:46;;;;;;;3.95;2.40;;;20.90;99.90;;;;;;4966031;28;20103;-84
2022/07/29 11:42:21;;;;;;;5.65;2.17;;;20.90;99.90;;;;;;4965585;28;20152;-85
2022/07/29 11:45:00;;;;;;;4.38;2.03;;;21.10;99.90;;;;;;4965404;28;20057;-84
2022/07/29 11:47:29;;;;;;;4.82;2.00;;;21.20;99.90;;;;;;4967053;28;20055;-85
2022/07/29 11:50:00;;;;;;;4.57;1.50;;;21.30;99.90;;;;;;4964605;28;20051;-84
2022/07/29 11:52:45;;;;;;;8.20;1.88;;;21.50;99.90;;;;;;4967634;28;20087;-85
2022/07/29 11:55:19;;;;;;;4.78;1.67;;;21.70;99.90;;;;;;4966336;28;20058;-85
2022/07/29 11:57:58;;;;;;;4.80;1.55;;;22.00;99.90;;;;;;4950514;28;20097;-84
2022/07/29 12:00:42;;;;;;;7.13;1.33;;;22.30;99.90;;;;;;4969573;28;20091;-85
2022/07/29 12:03:13;;;;;;;5.15;1.80;;;22.60;99.90;;;;;;4967045;28;20395;-85
2022/07/29 12:05:41;;;;;;;4.07;1.67;;;22.70;99.90;;;;;;4969759;28;20490;-85
2022/07/29 12:08:18;;;;;;;9.48;2.05;;;22.80;99.90;;;;;;4969680;28;20047;-85
2022/07/29 12:16:51;;;;;;;6.70;1.50;;;23.10;99.90;;;;;;4951129;28;20137;-85
2022/07/29 12:19:17;;;;;;;8.05;1.60;;;23.30;99.90;;;;;;4967982;28;20039;-85
2022/07/29 12:21:51;;;;;;;6.47;1.45;;;23.40;99.90;;;;;;4967591;28;20054;-86
2022/07/29 12:24:19;;;;;;;5.07;1.50;;;23.60;99.90;;;;;;4966876;28;20154;-86
2022/07/29 12:26:52;;;;;;;6.25;1.40;;;23.70;99.90;;;;;;4968477;28;20506;-86
2022/07/29 12:29:19;;;;;;;4.78;1.20;;;23.80;99.90;;;;;;4952247;28;20059;-86
2022/07/29 12:31:46;;;;;;;6.78;1.60;;;23.90;99.90;;;;;;4982572;28;20130;-85
2022/07/29 12:34:14;;;;;;;5.72;1.38;;;24.00;99.90;;;;;;4982731;28;20051;-86
2022/07/29 12:36:43;;;;;;;4.93;1.30;;;24.00;99.90;;;;;;4967467;28;20165;-86
2022/07/29 12:39:11;;;;;;;4.72;1.42;;;23.90;99.90;;;;;;4967829;28;20398;-86
2022/07/29 12:41:40;;;;;;;8.88;1.38;;;24.00;99.60;;;;;;4969090;28;20140;-86
2022/07/29 12:44:06;;;;;;;3.85;1.20;;;24.10;99.60;;;;;;4968304;28;20063;-86
2022/07/29 12:46:32;;;;;;;8.63;1.17;;;24.20;99.60;;;;;;4965587;28;20532;-86
2022/07/29 12:48:59;;;;;;;4.57;1.08;;;24.20;99.00;;;;;;4967071;28;20059;-86
2022/07/29 12:51:36;;;;;;;6.78;1.08;;;24.20;98.50;;;;;;4936963;28;20047;-85
2022/07/29 12:54:15;;;;;;;8.45;1.10;;;24.10;98.00;;;;;;4967253;28;20059;-84
2022/07/29 12:56:43;;;;;;;2.42;1.23;;;24.10;97.60;;;;;;4951351;28;20501;-84
2022/07/29 12:59:13;;;;;;;3.95;1.20;;;24.20;98.00;;;;;;4967002;28;20055;-87
2022/07/29 13:01:39;;;;;;;6.03;1.40;;;24.30;97.30;;;;;;4967726;28;20104;-85
2022/07/29 13:04:05;;;;;;;5.82;1.98;;;24.40;96.90;;;;;;4951441;28;20057;-86
2022/07/29 13:06:41;;;;;;;5.70;1.20;;;24.60;96.60;;;;;;4965821;28;20060;-84
2022/07/29 13:09:14;;;;;;;4.05;0.95;;;24.70;96.50;;;;;;4950928;28;20096;-85
2022/07/29 13:11:43;;;;;;;12.60;1.45;;;24.80;96.10;;;;;;4949722;28;20062;-85